Time;durP1;ratioP1;P1;durP2;ratioP2;P2;SDS_P1;SDS_P2;PMS_P1;PMS_P2;Temp;Humidity;BMP_temperature;BMP_pressure;BME280_temperature;BME280_humidity;BME280_pressure;Samples;Min_cycle;Max_cycle;Signal;HPM_P1;HPM_P2
2022/12/30 00:01:25;;;;;;;19.50;3.10;;;;;;;;;;5045339;28;20344;-76
2022/12/30 00:03:51;;;;;;;27.85;3.40;;;;;;;;;;5037814;28;20040;-76
2022/12/30 00:06:20;;;;;;;12.65;2.92;;;;;;;;;;5024649;28;20055;-75
2022/12/30 00:08:47;;;;;;;20.02;3.67;;;;;;;;;;5054239;28;20044;-73
2022/12/30 00:11:19;;;;;;;16.48;3.55;;;;;;;;;;5034471;28;20093;-74
2022/12/30 00:34:01;;;;;;;18.90;3.00;;;;;;;;;;5034301;28;20050;-75
2022/12/30 00:36:27;;;;;;;14.55;3.00;;;;;;;;;;5039664;28;21504;-76
2022/12/30 00:38:54;;;;;;;22.77;3.28;;;;;;;;;;5056563;28;20195;-75
2022/12/30 00:44:04;;;;;;;26.52;3.17;;;;;;;;;;5056206;28;20056;-75
2022/12/30 00:46:31;;;;;;;17.48;3.10;;;;;;;;;;5036539;28;20084;-75
2022/12/30 00:57:13;;;;;;;17.88;3.20;;;;;;;;;;5038153;28;20091;-75
2022/12/30 00:59:39;;;;;;;16.27;2.95;;;;;;;;;;5037965;28;20519;-76
2022/12/30 01:02:05;;;;;;;23.23;3.28;;;;;;;;;;5038575;28;20114;-76
2022/12/30 01:04:31;;;;;;;17.55;3.25;;;;;;;;;;5040170;28;20044;-74
2022/12/30 01:06:57;;;;;;;17.63;3.88;;;;;;;;;;5057815;28;20063;-74
2022/12/30 01:09:23;;;;;;;18.00;3.05;;;;;;;;;;5055750;28;20048;-75
2022/12/30 01:12:07;;;;;;;15.48;2.95;;;;;;;;;;5037691;28;20028;-75
2022/12/30 01:14:43;;;;;;;20.30;4.47;;;;;;;;;;5057783;28;20082;-76
2022/12/30 01:17:10;;;;;;;22.98;3.78;;;;;;;;;;5022461;28;20044;-75
2022/12/30 01:19:36;;;;;;;22.35;3.72;;;;;;;;;;5019794;28;20863;-74
2022/12/30 01:22:02;;;;;;;19.70;3.30;;;;;;;;;;5052932;28;20064;-74
2022/12/30 01:24:29;;;;;;;21.52;3.28;;;;;;;;;;5036186;28;20102;-73
2022/12/30 01:26:55;;;;;;;27.08;3.10;;;;;;;;;;5019379;28;20048;-74
2022/12/30 01:29:34;;;;;;;20.13;4.25;;;;;;;;;;5019382;28;20071;-74
2022/12/30 01:32:00;;;;;;;22.45;3.65;;;;;;;;;;5032637;28;20166;-75
2022/12/30 01:34:26;;;;;;;15.75;3.30;;;;;;;;;;5033634;28;21745;-75
2022/12/30 01:36:52;;;;;;;22.27;3.80;;;;;;;;;;5031230;28;21756;-75
2022/12/30 01:39:18;;;;;;;18.13;3.92;;;;;;;;;;5053111;28;20508;-75
2022/12/30 01:41:45;;;;;;;21.30;3.50;;;;;;;;;;5035164;28;20526;-75
2022/12/30 01:44:30;;;;;;;19.95;2.75;;;;;;;;;;5037197;28;20376;-75
2022/12/30 01:46:56;;;;;;;20.38;3.63;;;;;;;;;;5037373;28;20495;-76
2022/12/30 01:49:22;;;;;;;20.60;2.92;;;;;;;;;;5036120;28;20553;-75
2022/12/30 01:51:48;;;;;;;25.42;4.15;;;;;;;;;;5016734;28;20051;-74
2022/12/30 01:54:15;;;;;;;26.48;2.90;;;;;;;;;;5050825;28;20208;-75
2022/12/30 01:56:42;;;;;;;15.52;3.15;;;;;;;;;;5053366;28;20039;-75
2022/12/30 01:59:11;;;;;;;16.77;3.40;;;;;;;;;;5034833;28;20047;-74
2022/12/30 02:01:38;;;;;;;11.57;3.03;;;;;;;;;;5033421;28;20098;-76
2022/12/30 02:04:06;;;;;;;14.73;2.95;;;;;;;;;;5035095;28;20174;-75
2022/12/30 02:06:39;;;;;;;14.70;2.28;;;;;;;;;;5052353;28;20834;-76
2022/12/30 02:09:05;;;;;;;22.30;3.92;;;;;;;;;;5028977;28;20045;-75
2022/12/30 02:11:33;;;;;;;21.65;3.03;;;;;;;;;;5033494;28;20044;-75
2022/12/30 02:13:59;;;;;;;22.73;3.72;;;;;;;;;;5019037;28;20090;-75
2022/12/30 02:16:30;;;;;;;23.20;3.97;;;;;;;;;;5032691;28;20143;-75
2022/12/30 02:19:02;;;;;;;28.00;3.95;;;;;;;;;;5032815;28;20139;-75
2022/12/30 02:21:38;;;;;;;26.02;4.45;;;;;;;;;;5032692;28;20582;-75
2022/12/30 02:24:10;;;;;;;24.88;3.78;;;;;;;;;;5033700;28;20543;-75
2022/12/30 02:26:40;;;;;;;23.95;4.45;;;;;;;;;;5048193;28;20476;-75
2022/12/30 02:29:24;;;;;;;19.15;3.05;;;;;;;;;;5032491;28;20562;-75
2022/12/30 02:32:00;;;;;;;22.77;3.60;;;;;;;;;;5014129;28;20484;-75
2022/12/30 02:34:45;;;;;;;19.65;3.53;;;;;;;;;;5012204;28;20498;-75
2022/12/30 02:37:20;;;;;;;30.38;3.90;;;;;;;;;;5031704;28;20040;-75
2022/12/30 02:39:55;;;;;;;23.88;3.78;;;;;;;;;;5030649;28;20048;-75
2022/12/30 02:45:35;;;;;;;19.77;2.88;;;;;;;;;;5030645;28;20048;-75
2022/12/30 02:48:12;;;;;;;49.10;3.50;;;;;;;;;;5032390;28;20304;-75
2022/12/30 02:53:27;;;;;;;26.77;3.15;;;;;;;;;;5039567;28;20116;-75
2022/12/30 02:55:53;;;;;;;19.27;2.67;;;;;;;;;;5052395;28;20642;-74
2022/12/30 02:58:20;;;;;;;36.40;4.38;;;;;;;;;;5053006;28;20496;-74
2022/12/30 03:04:10;;;;;;;22.77;3.28;;;;;;;;;;5035476;28;20050;-74
2022/12/30 03:06:43;;;;;;;14.57;2.53;;;;;;;;;;5033754;28;20126;-75
2022/12/30 03:09:09;;;;;;;29.10;4.13;;;;;;;;;;5035814;28;20075;-75
2022/12/30 03:11:52;;;;;;;29.15;4.28;;;;;;;;;;5034459;28;20468;-75
2022/12/30 03:14:29;;;;;;;21.97;4.10;;;;;;;;;;5035781;28;20040;-75
2022/12/30 03:17:07;;;;;;;15.55;3.17;;;;;;;;;;5038890;28;20077;-75
2022/12/30 03:19:38;;;;;;;26.38;3.33;;;;;;;;;;5020176;28;20043;-75
2022/12/30 03:22:06;;;;;;;15.65;3.63;;;;;;;;;;5034450;28;20044;-75
2022/12/30 03:27:20;;;;;;;22.60;3.53;;;;;;;;;;5048820;28;20726;-75
2022/12/30 03:29:46;;;;;;;20.23;3.35;;;;;;;;;;5053187;28;20108;-75
2022/12/30 03:32:14;;;;;;;29.13;4.47;;;;;;;;;;5034646;28;20492;-75
2022/12/30 03:34:40;;;;;;;26.02;4.07;;;;;;;;;;5056390;28;20071;-72
2022/12/30 03:37:18;;;;;;;29.05;3.75;;;;;;;;;;5047119;28;20051;-72
2022/12/30 03:39:48;;;;;;;20.90;3.38;;;;;;;;;;5052145;28;20170;-72
2022/12/30 03:42:15;;;;;;;23.10;3.65;;;;;;;;;;5048816;28;20048;-72
2022/12/30 03:44:43;;;;;;;23.50;4.03;;;;;;;;;;5055024;28;20079;-70
2022/12/30 03:47:16;;;;;;;19.33;4.50;;;;;;;;;;5054265;28;20051;-71
2022/12/30 03:49:42;;;;;;;25.95;5.00;;;;;;;;;;5050334;28;20056;-72
2022/12/30 03:52:14;;;;;;;29.02;6.28;;;;;;;;;;5069332;27;20166;-72
2022/12/30 03:54:40;;;;;;;14.13;3.95;;;;;;;;;;5048870;28;20377;-72
2022/12/30 03:57:06;;;;;;;32.22;5.00;;;;;;;;;;5049027;28;20123;-72
2022/12/30 03:59:32;;;;;;;24.25;3.80;;;;;;;;;;5051768;28;20131;-72
2022/12/30 04:01:59;;;;;;;29.25;4.93;;;;;;;;;;5050264;28;20048;-72
2022/12/30 04:04:25;;;;;;;26.13;4.25;;;;;;;;;;5049899;28;21032;-72
2022/12/30 04:06:51;;;;;;;17.65;3.33;;;;;;;;;;5067895;27;20040;-72
2022/12/30 04:09:17;;;;;;;22.60;3.53;;;;;;;;;;5054345;28;20052;-72
2022/12/30 04:11:43;;;;;;;24.40;5.05;;;;;;;;;;5049953;28;20069;-71
2022/12/30 04:14:10;;;;;;;21.95;5.40;;;;;;;;;;5050914;28;21291;-72
2022/12/30 04:16:36;;;;;;;26.75;3.72;;;;;;;;;;5048529;28;20043;-72
2022/12/30 04:19:03;;;;;;;33.05;4.32;;;;;;;;;;5049891;28;20191;-71
2022/12/30 04:21:29;;;;;;;20.35;3.80;;;;;;;;;;5050556;28;20044;-71
2022/12/30 04:23:55;;;;;;;19.80;3.92;;;;;;;;;;5052035;28;20056;-71
2022/12/30 04:26:21;;;;;;;20.48;2.90;;;;;;;;;;5052300;28;20036;-71
2022/12/30 04:28:47;;;;;;;16.55;3.70;;;;;;;;;;5048986;28;20629;-71
2022/12/30 04:31:13;;;;;;;32.58;4.88;;;;;;;;;;5041928;28;20062;-71
2022/12/30 04:33:39;;;;;;;23.38;4.45;;;;;;;;;;5051946;28;20078;-71
2022/12/30 04:36:05;;;;;;;25.25;4.57;;;;;;;;;;5038860;28;20040;-71
2022/12/30 04:38:32;;;;;;;24.25;4.28;;;;;;;;;;5047065;28;20547;-72
2022/12/30 04:40:58;;;;;;;21.40;4.32;;;;;;;;;;5048639;28;20661;-72
2022/12/30 04:43:24;;;;;;;27.38;4.95;;;;;;;;;;5049793;28;20054;-71
2022/12/30 04:45:50;;;;;;;22.42;4.38;;;;;;;;;;5049829;28;20036;-71
2022/12/30 04:48:16;;;;;;;22.17;5.10;;;;;;;;;;5052117;28;20056;-70
2022/12/30 04:50:45;;;;;;;26.92;4.38;;;;;;;;;;5053227;28;20067;-71
2022/12/30 04:53:12;;;;;;;24.48;4.60;;;;;;;;;;5052305;28;20055;-71
2022/12/30 04:55:38;;;;;;;22.20;4.55;;;;;;;;;;5052108;28;20460;-72
2022/12/30 04:58:05;;;;;;;20.15;4.68;;;;;;;;;;5065686;27;20055;-72
2022/12/30 05:00:31;;;;;;;15.18;3.60;;;;;;;;;;5047762;28;20063;-72
2022/12/30 05:02:57;;;;;;;25.42;4.68;;;;;;;;;;5024172;28;20122;-72
2022/12/30 05:05:23;;;;;;;21.38;4.30;;;;;;;;;;5045078;28;20048;-71
2022/12/30 05:07:50;;;;;;;14.50;3.42;;;;;;;;;;5047754;28;20080;-70
2022/12/30 05:10:16;;;;;;;22.38;4.65;;;;;;;;;;5044462;28;20073;-70
2022/12/30 05:12:42;;;;;;;18.05;3.80;;;;;;;;;;5049679;28;20044;-71
2022/12/30 05:15:08;;;;;;;19.40;3.45;;;;;;;;;;5051797;28;20040;-71
2022/12/30 05:17:34;;;;;;;20.25;3.95;;;;;;;;;;5066043;28;20048;-71
2022/12/30 05:20:01;;;;;;;24.42;4.82;;;;;;;;;;5036115;28;20043;-71
2022/12/30 05:22:27;;;;;;;23.38;5.05;;;;;;;;;;5050146;28;20127;-71
2022/12/30 05:27:37;;;;;;;20.27;4.40;;;;;;;;;;5050388;28;20600;-69
2022/12/30 05:30:04;;;;;;;19.20;5.00;;;;;;;;;;5029188;28;20141;-72
2022/12/30 05:32:30;;;;;;;21.70;5.43;;;;;;;;;;5040439;28;20450;-72
2022/12/30 05:34:56;;;;;;;24.55;5.88;;;;;;;;;;5040450;28;20044;-72
2022/12/30 05:37:22;;;;;;;29.95;6.72;;;;;;;;;;5050080;28;20135;-72
2022/12/30 05:39:48;;;;;;;18.45;5.13;;;;;;;;;;5051135;28;20044;-72
2022/12/30 05:42:14;;;;;;;19.50;5.90;;;;;;;;;;5056035;28;20085;-71
2022/12/30 05:44:40;;;;;;;18.00;6.13;;;;;;;;;;5035884;28;20052;-70
2022/12/30 05:47:07;;;;;;;24.77;7.40;;;;;;;;;;5041337;28;20104;-71
2022/12/30 05:49:33;;;;;;;24.90;7.85;;;;;;;;;;5036745;28;20105;-71
2022/12/30 05:51:59;;;;;;;18.75;5.68;;;;;;;;;;5046443;28;20052;-71
2022/12/30 05:54:25;;;;;;;23.13;6.68;;;;;;;;;;5033745;28;20056;-71
2022/12/30 05:56:51;;;;;;;19.02;6.68;;;;;;;;;;5032439;28;20102;-70
2022/12/30 05:59:17;;;;;;;22.48;6.75;;;;;;;;;;5046420;28;20150;-70
2022/12/30 06:01:43;;;;;;;16.88;7.15;;;;;;;;;;5044991;28;20102;-71
2022/12/30 06:04:09;;;;;;;23.40;7.93;;;;;;;;;;5047474;28;20399;-71
2022/12/30 06:06:35;;;;;;;22.02;7.97;;;;;;;;;;5049206;28;20454;-73
2022/12/30 06:09:01;;;;;;;24.42;7.40;;;;;;;;;;5065435;28;20036;-73
2022/12/30 06:11:27;;;;;;;19.50;7.38;;;;;;;;;;5064482;28;21596;-73
2022/12/30 06:13:53;;;;;;;25.25;7.43;;;;;;;;;;5047914;28;20040;-73
2022/12/30 06:16:20;;;;;;;24.88;7.75;;;;;;;;;;5046589;28;22025;-74
2022/12/30 06:18:46;;;;;;;22.85;7.70;;;;;;;;;;5056297;28;20950;-73
2022/12/30 06:21:12;;;;;;;26.80;7.35;;;;;;;;;;5042963;28;20048;-73
2022/12/30 06:23:38;;;;;;;22.80;6.55;;;;;;;;;;5059025;28;20117;-73
2022/12/30 06:26:04;;;;;;;15.73;6.32;;;;;;;;;;5061642;28;20044;-73
2022/12/30 06:28:30;;;;;;;17.52;4.57;;;;;;;;;;5057876;28;20044;-73
2022/12/30 06:30:57;;;;;;;18.98;7.60;;;;;;;;;;5059092;28;20055;-74
2022/12/30 06:33:23;;;;;;;28.10;6.80;;;;;;;;;;5076332;27;20642;-74
2022/12/30 06:35:49;;;;;;;15.15;5.00;;;;;;;;;;5044670;28;20142;-73
2022/12/30 06:38:15;;;;;;;25.67;6.85;;;;;;;;;;5059629;28;20062;-73
2022/12/30 06:40:44;;;;;;;10.57;4.47;;;;;;;;;;5057196;28;20488;-74
2022/12/30 06:43:10;;;;;;;18.45;5.00;;;;;;;;;;5045840;28;20047;-73
2022/12/30 06:45:36;;;;;;;18.80;5.43;;;;;;;;;;5057922;28;20575;-74
2022/12/30 06:48:04;;;;;;;24.23;5.75;;;;;;;;;;5056570;28;20493;-74
2022/12/30 06:50:31;;;;;;;14.65;4.80;;;;;;;;;;5055281;28;20576;-74
2022/12/30 06:52:58;;;;;;;16.88;4.55;;;;;;;;;;5058637;28;20089;-74
2022/12/30 06:55:24;;;;;;;23.70;5.55;;;;;;;;;;5049725;28;20496;-74
2022/12/30 06:57:50;;;;;;;20.70;4.28;;;;;;;;;;5055428;28;20697;-73
2022/12/30 07:00:16;;;;;;;19.77;4.93;;;;;;;;;;5038303;28;20040;-73
2022/12/30 07:02:43;;;;;;;18.67;4.85;;;;;;;;;;5055847;28;20041;-73
2022/12/30 07:05:09;;;;;;;18.52;4.40;;;;;;;;;;5054937;28;20553;-73
2022/12/30 07:07:35;;;;;;;20.27;5.63;;;;;;;;;;5054290;28;20048;-73
2022/12/30 07:10:01;;;;;;;18.65;4.20;;;;;;;;;;5058172;28;20472;-73
2022/12/30 07:12:27;;;;;;;18.60;4.32;;;;;;;;;;5057081;28;20037;-72
2022/12/30 07:14:53;;;;;;;12.40;3.88;;;;;;;;;;5040232;28;20435;-72
2022/12/30 07:17:19;;;;;;;28.42;4.68;;;;;;;;;;5041661;28;20032;-72
2022/12/30 07:19:48;;;;;;;17.88;4.75;;;;;;;;;;5040797;28;20048;-73
2022/12/30 07:22:15;;;;;;;26.58;4.57;;;;;;;;;;5043816;28;20171;-73
2022/12/30 07:24:42;;;;;;;17.40;4.20;;;;;;;;;;5056181;28;20055;-73
2022/12/30 07:27:11;;;;;;;12.55;3.47;;;;;;;;;;5049867;28;20599;-73
2022/12/30 07:29:41;;;;;;;13.82;3.90;;;;;;;;;;5054846;28;20071;-73
2022/12/30 07:32:07;;;;;;;15.50;4.68;;;;;;;;;;5055729;28;20257;-73
2022/12/30 07:34:34;;;;;;;19.17;4.15;;;;;;;;;;5055536;28;20551;-73
2022/12/30 07:37:01;;;;;;;15.65;3.38;;;;;;;;;;5026017;28;20040;-73
2022/12/30 07:39:29;;;;;;;12.38;4.20;;;;;;;;;;5056822;28;20044;-73
2022/12/30 07:41:55;;;;;;;18.25;3.95;;;;;;;;;;5052918;28;20625;-73
2022/12/30 07:44:21;;;;;;;17.50;3.25;;;;;;;;;;5057862;28;21785;-72
2022/12/30 07:46:47;;;;;;;13.07;3.60;;;;;;;;;;5055940;28;20043;-72
2022/12/30 07:49:13;;;;;;;20.95;4.05;;;;;;;;;;5054334;28;20615;-73
2022/12/30 07:51:39;;;;;;;20.88;4.82;;;;;;;;;;5043317;28;20110;-73
2022/12/30 07:54:08;;;;;;;14.02;3.42;;;;;;;;;;5044117;28;20117;-73
2022/12/30 07:56:34;;;;;;;21.00;3.47;;;;;;;;;;5055079;28;20040;-72
2022/12/30 07:59:02;;;;;;;27.48;4.13;;;;;;;;;;5054023;28;20187;-72
2022/12/30 08:01:28;;;;;;;22.27;4.75;;;;;;;;;;5054985;28;20045;-72
2022/12/30 08:03:54;;;;;;;11.73;4.15;;;;;;;;;;5041344;28;20080;-72
2022/12/30 08:06:20;;;;;;;17.80;3.90;;;;;;;;;;5053956;28;20068;-73
2022/12/30 08:08:47;;;;;;;22.23;4.60;;;;;;;;;;5055585;28;20040;-73
2022/12/30 08:11:14;;;;;;;16.52;3.90;;;;;;;;;;5048812;28;20048;-73
2022/12/30 08:13:41;;;;;;;22.67;5.40;;;;;;;;;;5053026;28;20048;-73
2022/12/30 08:16:11;;;;;;;21.17;4.43;;;;;;;;;;5055780;28;20134;-74
2022/12/30 08:18:38;;;;;;;17.13;4.13;;;;;;;;;;5057682;28;20126;-73
2022/12/30 08:21:05;;;;;;;24.30;4.65;;;;;;;;;;5056827;28;20099;-74
2022/12/30 08:23:32;;;;;;;20.10;4.10;;;;;;;;;;5052795;28;20132;-73
2022/12/30 08:26:03;;;;;;;13.05;3.40;;;;;;;;;;5057584;28;20094;-73
2022/12/30 08:28:29;;;;;;;22.92;5.18;;;;;;;;;;5054585;28;20160;-72
2022/12/30 08:30:55;;;;;;;20.67;4.00;;;;;;;;;;5053642;28;20578;-72
2022/12/30 08:33:21;;;;;;;14.93;3.55;;;;;;;;;;5050998;28;20119;-72
2022/12/30 08:35:48;;;;;;;21.63;4.13;;;;;;;;;;5054257;28;20036;-72
2022/12/30 08:38:14;;;;;;;12.23;3.15;;;;;;;;;;5040349;28;20450;-72
2022/12/30 08:40:40;;;;;;;15.75;3.30;;;;;;;;;;5054925;28;20074;-73
2022/12/30 08:43:07;;;;;;;18.58;5.05;;;;;;;;;;5041954;28;20112;-73
2022/12/30 08:45:33;;;;;;;22.65;3.63;;;;;;;;;;5054327;28;20054;-74
2022/12/30 08:48:00;;;;;;;16.48;3.33;;;;;;;;;;5052730;28;20047;-73
2022/12/30 08:50:27;;;;;;;19.65;3.65;;;;;;;;;;5054533;28;20055;-73
2022/12/30 08:52:53;;;;;;;12.90;2.95;;;;;;;;;;5056242;28;22361;-73
2022/12/30 08:55:19;;;;;;;18.15;3.83;;;;;;;;;;5045004;28;20044;-73
2022/12/30 08:57:45;;;;;;;21.05;3.38;;;;;;;;;;5054657;28;20172;-73
2022/12/30 09:00:11;;;;;;;16.92;3.30;;;;;;;;;;5071792;28;20500;-73
2022/12/30 09:02:38;;;;;;;19.88;4.35;;;;;;;;;;5054093;28;20235;-73
2022/12/30 09:05:04;;;;;;;24.02;4.13;;;;;;;;;;5037876;28;20158;-73
2022/12/30 09:07:30;;;;;;;10.57;2.75;;;;;;;;;;5051384;28;20055;-72
2022/12/30 09:09:56;;;;;;;10.70;2.83;;;;;;;;;;5050037;28;20174;-73
2022/12/30 09:12:22;;;;;;;30.73;3.05;;;;;;;;;;5056792;28;20039;-73
2022/12/30 09:14:48;;;;;;;13.43;3.63;;;;;;;;;;5053427;28;20051;-73
2022/12/30 09:17:14;;;;;;;18.73;3.25;;;;;;;;;;5051523;28;20076;-72
2022/12/30 09:19:40;;;;;;;11.25;3.20;;;;;;;;;;5038665;28;20036;-72
2022/12/30 09:22:06;;;;;;;25.60;3.42;;;;;;;;;;5054644;28;20078;-72
2022/12/30 09:24:32;;;;;;;22.08;3.85;;;;;;;;;;5054479;28;20178;-72
2022/12/30 09:26:59;;;;;;;20.15;4.20;;;;;;;;;;5054802;28;20041;-73
2022/12/30 09:29:25;;;;;;;18.63;3.85;;;;;;;;;;5054551;28;20052;-73
2022/12/30 09:31:51;;;;;;;15.00;3.80;;;;;;;;;;5060875;28;20551;-73
2022/12/30 09:34:17;;;;;;;19.85;3.97;;;;;;;;;;5042602;28;20043;-73
2022/12/30 09:36:43;;;;;;;14.73;3.38;;;;;;;;;;5023797;28;20051;-73
2022/12/30 09:39:10;;;;;;;12.93;3.17;;;;;;;;;;5051178;28;20541;-73
2022/12/30 09:44:38;;;;;;;15.52;4.32;;;;;;;;;;5054930;28;20059;-73
2022/12/30 09:47:31;;;;;;;15.93;4.78;;;;;;;;;;5056012;28;20044;-73
2022/12/30 09:49:57;;;;;;;10.80;2.95;;;;;;;;;;5046738;28;20044;-73
2022/12/30 09:52:29;;;;;;;20.92;5.50;;;;;;;;;;5043507;28;20048;-73
2022/12/30 09:55:01;;;;;;;10.43;3.28;;;;;;;;;;5072336;28;20075;-73
2022/12/30 09:57:30;;;;;;;16.67;4.07;;;;;;;;;;5040673;28;20143;-73
2022/12/30 09:59:59;;;;;;;15.77;2.83;;;;;;;;;;5054878;28;20044;-73
2022/12/30 10:02:29;;;;;;;9.13;2.85;;;;;;;;;;5041185;28;20150;-73
2022/12/30 10:04:56;;;;;;;10.35;2.75;;;;;;;;;;5058539;28;20102;-74
2022/12/30 10:07:28;;;;;;;19.65;3.90;;;;;;;;;;5037302;28;20044;-73
2022/12/30 10:09:54;;;;;;;10.23;2.53;;;;;;;;;;5057000;28;20040;-74
2022/12/30 10:12:27;;;;;;;11.88;2.97;;;;;;;;;;5055881;28;20129;-73
2022/12/30 10:14:56;;;;;;;18.98;4.32;;;;;;;;;;5057792;28;20048;-73
2022/12/30 10:17:41;;;;;;;13.88;3.28;;;;;;;;;;5057470;28;20183;-74
2022/12/30 10:20:26;;;;;;;11.40;3.47;;;;;;;;;;5057297;28;20048;-74
2022/12/30 10:22:58;;;;;;;16.38;3.58;;;;;;;;;;5055100;28;20050;-74
2022/12/30 10:25:27;;;;;;;10.60;2.95;;;;;;;;;;5044098;28;20618;-74
2022/12/30 10:27:57;;;;;;;16.08;3.22;;;;;;;;;;5036376;28;20041;-72
2022/12/30 10:30:24;;;;;;;9.00;2.75;;;;;;;;;;5054488;28;20097;-73
2022/12/30 10:33:05;;;;;;;11.15;2.13;;;;;;;;;;5058850;28;20096;-73
2022/12/30 10:35:32;;;;;;;15.80;2.97;;;;;;;;;;5038419;28;20657;-74
2022/12/30 10:38:05;;;;;;;10.43;3.10;;;;;;;;;;5049611;28;20346;-73
2022/12/30 10:40:42;;;;;;;11.55;2.88;;;;;;;;;;5049202;28;20048;-74
2022/12/30 10:43:11;;;;;;;7.50;2.45;;;;;;;;;;5049845;28;20051;-77
2022/12/30 10:45:40;;;;;;;11.73;2.72;;;;;;;;;;5050867;28;20100;-77
2022/12/30 10:48:38;;;;;;;15.25;3.00;;;;;;;;;;5056304;28;20071;-76
2022/12/30 10:51:05;;;;;;;12.38;3.17;;;;;;;;;;5026373;28;20062;-76
2022/12/30 10:53:32;;;;;;;12.38;2.88;;;;;;;;;;5058265;28;20129;-76
2022/12/30 10:56:02;;;;;;;13.20;2.78;;;;;;;;;;5057844;28;20400;-77
2022/12/30 10:58:34;;;;;;;4.78;2.28;;;;;;;;;;5036123;28;20040;-78
2022/12/30 11:01:00;;;;;;;9.00;2.17;;;;;;;;;;5069522;28;20097;-77
2022/12/30 11:03:27;;;;;;;6.55;2.35;;;;;;;;;;5055158;28;20865;-77
2022/12/30 11:05:53;;;;;;;12.13;3.15;;;;;;;;;;5054689;28;20415;-77
2022/12/30 11:08:26;;;;;;;10.70;2.38;;;;;;;;;;5044831;28;20048;-79
2022/12/30 11:11:03;;;;;;;9.07;1.88;;;;;;;;;;5055123;28;20040;-78
2022/12/30 11:16:14;;;;;;;9.00;2.20;;;;;;;;;;5054079;28;20044;-77
2022/12/30 11:18:44;;;;;;;9.38;2.88;;;;;;;;;;5054729;28;20052;-77
2022/12/30 11:21:10;;;;;;;9.30;2.67;;;;;;;;;;5047443;28;20052;-79
2022/12/30 11:23:38;;;;;;;8.88;2.22;;;;;;;;;;5042361;28;20059;-77
2022/12/30 11:26:07;;;;;;;8.50;2.22;;;;;;;;;;5057040;28;20430;-77
2022/12/30 11:28:38;;;;;;;7.57;2.20;;;;;;;;;;5057939;28;20608;-77
2022/12/30 11:31:09;;;;;;;9.57;2.17;;;;;;;;;;5055313;28;20700;-77
2022/12/30 11:33:40;;;;;;;7.57;2.45;;;;;;;;;;5055921;28;20040;-76
2022/12/30 11:36:12;;;;;;;5.20;1.75;;;;;;;;;;5044350;28;20040;-78
2022/12/30 11:38:39;;;;;;;6.18;2.40;;;;;;;;;;5041969;28;20383;-76
2022/12/30 11:41:15;;;;;;;15.90;2.30;;;;;;;;;;5059790;28;20048;-76
2022/12/30 11:43:41;;;;;;;9.77;1.98;;;;;;;;;;5054392;28;20122;-73
2022/12/30 11:46:09;;;;;;;7.97;2.50;;;;;;;;;;5057831;28;20055;-72
2022/12/30 11:48:40;;;;;;;5.32;2.08;;;;;;;;;;5055532;28;20052;-72
2022/12/30 11:51:30;;;;;;;8.52;2.08;;;;;;;;;;5056750;28;20148;-73
2022/12/30 11:54:05;;;;;;;7.22;1.90;;;;;;;;;;5048735;28;20048;-73
2022/12/30 11:56:31;;;;;;;10.02;2.55;;;;;;;;;;5036330;28;20543;-72
2022/12/30 11:59:06;;;;;;;6.85;2.15;;;;;;;;;;5028860;28;21239;-71
2022/12/30 12:01:40;;;;;;;10.82;2.30;;;;;;;;;;5044155;28;20522;-72
2022/12/30 12:04:07;;;;;;;11.10;3.13;;;;;;;;;;5057361;28;20055;-73
2022/12/30 12:06:50;;;;;;;9.10;2.22;;;;;;;;;;5040842;28;20043;-73
2022/12/30 12:09:16;;;;;;;7.75;2.85;;;;;;;;;;5058961;28;20052;-73
2022/12/30 12:11:45;;;;;;;6.13;2.20;;;;;;;;;;5059935;28;20036;-73
2022/12/30 12:14:14;;;;;;;6.90;2.20;;;;;;;;;;5049641;28;20044;-72
2022/12/30 12:16:46;;;;;;;8.40;2.08;;;;;;;;;;5041762;28;20380;-72
2022/12/30 12:19:20;;;;;;;8.18;2.40;;;;;;;;;;5063817;28;20689;-72
2022/12/30 12:21:47;;;;;;;10.70;2.97;;;;;;;;;;5059035;28;20098;-72
2022/12/30 12:24:19;;;;;;;7.13;2.20;;;;;;;;;;5054844;28;21806;-72
2022/12/30 12:26:54;;;;;;;6.18;1.85;;;;;;;;;;5058898;28;20162;-73
2022/12/30 12:29:21;;;;;;;8.82;2.33;;;;;;;;;;5059035;28;20048;-73
2022/12/30 12:31:47;;;;;;;9.60;2.47;;;;;;;;;;5057053;28;20036;-72
2022/12/30 12:34:25;;;;;;;12.38;2.38;;;;;;;;;;5052792;28;20044;-77
2022/12/30 12:37:01;;;;;;;7.82;2.13;;;;;;;;;;5041537;28;20733;-76
2022/12/30 12:39:33;;;;;;;8.75;2.38;;;;;;;;;;5050986;28;20052;-75
2022/12/30 12:42:00;;;;;;;7.50;1.70;;;;;;;;;;5052380;28;20225;-74
2022/12/30 12:44:39;;;;;;;5.82;2.15;;;;;;;;;;5050088;28;20395;-74
2022/12/30 12:47:21;;;;;;;6.80;2.33;;;;;;;;;;5076417;28;20041;-73
2022/12/30 12:49:53;;;;;;;8.30;2.45;;;;;;;;;;5058404;28;20044;-74
2022/12/30 12:52:19;;;;;;;8.02;2.47;;;;;;;;;;5044099;28;20062;-73
2022/12/30 12:55:04;;;;;;;5.43;1.85;;;;;;;;;;5060990;28;20107;-72
2022/12/30 12:57:30;;;;;;;6.72;2.13;;;;;;;;;;5060733;28;20079;-73
2022/12/30 12:59:56;;;;;;;12.63;2.85;;;;;;;;;;5045087;28;20040;-72
2022/12/30 13:02:41;;;;;;;9.88;2.63;;;;;;;;;;5060009;28;20043;-72
2022/12/30 13:05:17;;;;;;;7.70;2.67;;;;;;;;;;5056849;28;20127;-72
2022/12/30 13:07:52;;;;;;;8.35;1.90;;;;;;;;;;5055472;28;20102;-72
2022/12/30 13:10:34;;;;;;;8.20;2.28;;;;;;;;;;5053929;28;20425;-73
2022/12/30 13:13:08;;;;;;;7.85;2.00;;;;;;;;;;5054185;28;20087;-73
2022/12/30 13:15:37;;;;;;;8.88;2.67;;;;;;;;;;5045150;28;20479;-73
2022/12/30 13:18:05;;;;;;;5.75;1.42;;;;;;;;;;5059796;28;20044;-73
2022/12/30 13:20:37;;;;;;;10.68;2.58;;;;;;;;;;5044942;28;20100;-73
2022/12/30 13:23:05;;;;;;;7.57;1.83;;;;;;;;;;5060116;28;20409;-72
2022/12/30 13:25:51;;;;;;;4.03;1.30;;;;;;;;;;5043874;28;20039;-73
2022/12/30 13:28:25;;;;;;;8.18;1.60;;;;;;;;;;5058850;28;20417;-72
2022/12/30 13:30:51;;;;;;;5.15;1.45;;;;;;;;;;5057907;28;20448;-72
2022/12/30 13:33:25;;;;;;;5.60;1.58;;;;;;;;;;5058677;28;20543;-73
2022/12/30 13:36:08;;;;;;;4.47;1.30;;;;;;;;;;5061824;28;20040;-72
2022/12/30 13:38:43;;;;;;;7.25;1.80;;;;;;;;;;5061719;28;20130;-72
2022/12/30 13:41:19;;;;;;;7.13;1.98;;;;;;;;;;5044835;28;20138;-72
2022/12/30 13:43:47;;;;;;;9.85;2.10;;;;;;;;;;5055817;28;20492;-72
2022/12/30 13:46:22;;;;;;;6.50;1.55;;;;;;;;;;5057521;28;20059;-72
2022/12/30 13:48:53;;;;;;;4.38;1.65;;;;;;;;;;5063438;28;20044;-72
2022/12/30 13:51:21;;;;;;;4.43;1.40;;;;;;;;;;5085728;28;20510;-73
2022/12/30 13:54:02;;;;;;;7.22;1.70;;;;;;;;;;5080708;28;20040;-74
2022/12/30 13:56:40;;;;;;;5.30;1.50;;;;;;;;;;5056704;28;20095;-73
2022/12/30 13:59:20;;;;;;;7.78;2.20;;;;;;;;;;5056283;28;20464;-72
2022/12/30 14:01:46;;;;;;;7.47;2.15;;;;;;;;;;5055329;28;20040;-73
2022/12/30 14:04:12;;;;;;;6.80;2.33;;;;;;;;;;5043102;28;20429;-73
2022/12/30 14:06:45;;;;;;;10.88;5.35;;;;;;;;;;5044958;28;20772;-73
2022/12/30 14:09:22;;;;;;;10.32;1.90;;;;;;;;;;5052492;28;20088;-73
2022/12/30 14:12:08;;;;;;;7.00;1.92;;;;;;;;;;5057683;28;20048;-73
2022/12/30 14:14:41;;;;;;;7.72;2.08;;;;;;;;;;5058388;28;20036;-73
2022/12/30 14:17:13;;;;;;;5.23;1.93;;;;;;;;;;5056129;28;20470;-73
2022/12/30 14:19:49;;;;;;;6.30;2.20;;;;;;;;;;5054039;28;20336;-73
2022/12/30 14:22:51;;;;;;;8.90;2.20;;;;;;;;;;5054777;28;20861;-72
2022/12/30 14:25:23;;;;;;;6.18;2.22;;;;;;;;;;4977237;28;20049;-73
2022/12/30 14:27:50;;;;;;;7.53;2.58;;;;;;;;;;5041274;28;20056;-73
2022/12/30 14:30:18;;;;;;;6.25;1.63;;;;;;;;;;5055877;28;20041;-73
2022/12/30 14:32:44;;;;;;;5.53;1.73;;;;;;;;;;5055486;28;20037;-73
2022/12/30 14:35:17;;;;;;;3.65;1.52;;;;;;;;;;5039214;28;20044;-73
2022/12/30 14:37:43;;;;;;;5.07;1.50;;;;;;;;;;5055634;28;20097;-74
2022/12/30 14:40:29;;;;;;;7.80;2.50;;;;;;;;;;5066758;28;20051;-73
2022/12/30 14:42:55;;;;;;;10.55;1.70;;;;;;;;;;5080447;28;20109;-74
2022/12/30 14:45:26;;;;;;;7.22;1.80;;;;;;;;;;5049805;28;20676;-74
2022/12/30 14:47:52;;;;;;;5.97;1.95;;;;;;;;;;5067589;28;20135;-73
2022/12/30 14:50:20;;;;;;;8.90;1.83;;;;;;;;;;5071549;28;20376;-73
2022/12/30 14:52:59;;;;;;;6.72;2.00;;;;;;;;;;5063964;28;20556;-73
2022/12/30 14:55:27;;;;;;;7.88;1.73;;;;;;;;;;5065568;28;20059;-73
2022/12/30 14:58:11;;;;;;;6.78;2.42;;;;;;;;;;5060995;28;20051;-73
2022/12/30 15:00:38;;;;;;;4.65;1.60;;;;;;;;;;5072094;28;21728;-73
2022/12/30 15:03:13;;;;;;;7.63;2.47;;;;;;;;;;5054524;28;20681;-73
2022/12/30 15:05:53;;;;;;;9.57;3.13;;;;;;;;;;5054203;28;20423;-72
2022/12/30 15:08:20;;;;;;;6.57;1.83;;;;;;;;;;5053352;28;20572;-73
2022/12/30 15:10:54;;;;;;;7.45;3.60;;;;;;;;;;5055617;28;20039;-72
2022/12/30 15:13:24;;;;;;;7.72;2.15;;;;;;;;;;5056525;28;20047;-73
2022/12/30 15:15:52;;;;;;;6.63;2.22;;;;;;;;;;5053278;28;20050;-73
2022/12/30 15:18:27;;;;;;;7.38;2.22;;;;;;;;;;5056160;28;20687;-73
2022/12/30 15:20:53;;;;;;;5.47;2.45;;;;;;;;;;5056064;28;20055;-72
2022/12/30 15:23:20;;;;;;;7.25;2.10;;;;;;;;;;5060438;28;20155;-73
2022/12/30 15:26:04;;;;;;;9.40;2.15;;;;;;;;;;5053803;28;20048;-72
2022/12/30 15:28:30;;;;;;;3.55;1.42;;;;;;;;;;5054339;28;20630;-73
2022/12/30 15:30:57;;;;;;;6.00;1.90;;;;;;;;;;5056389;28;20152;-72
2022/12/30 15:33:24;;;;;;;9.57;2.58;;;;;;;;;;5059713;28;20837;-72
2022/12/30 15:35:50;;;;;;;5.82;1.95;;;;;;;;;;5078669;28;20043;-72
2022/12/30 15:38:19;;;;;;;7.93;2.40;;;;;;;;;;5085280;28;20044;-72